Time;durP1;ratioP1;P1;durP2;ratioP2;P2;SDS_P1;SDS_P2;PMS_P1;PMS_P2;Temp;Humidity;BMP_temperature;BMP_pressure;BME280_temperature;BME280_humidity;BME280_pressure;Samples;Min_cycle;Max_cycle;Signal;HPM_P1;HPM_P2
2023/07/27 00:01:30;;;;;;;4.55;1.92;;;;;;;-146.27;73.78;81801.69;5071696;28;20056;-71
2023/07/27 00:03:55;;;;;;;3.63;1.52;;;;;;;-146.27;73.88;81761.50;5071793;28;20036;-71
2023/07/27 00:06:21;;;;;;;4.25;1.90;;;;;;;-146.27;75.52;81833.81;5071862;28;20471;-71
2023/07/27 00:08:46;;;;;;;8.32;2.10;;;;;;;-146.27;76.96;81843.84;5071357;28;20119;-70
2023/07/27 00:11:11;;;;;;;5.15;1.90;;;;;;;-146.27;77.40;81829.78;5071051;28;20024;-70
2023/07/27 00:13:37;;;;;;;3.63;1.60;;;;;;;-146.27;77.82;81878.00;5070741;28;20051;-71
2023/07/27 00:16:02;;;;;;;8.75;1.95;;;;;;;-146.27;79.17;81922.19;5070941;28;20039;-71
2023/07/27 00:18:28;;;;;;;6.90;3.17;;;;;;;-146.27;80.03;81825.78;5071345;28;20119;-71
2023/07/27 00:20:53;;;;;;;3.90;2.03;;;;;;;-146.27;80.56;81833.81;5071023;28;20032;-71
2023/07/27 00:23:18;;;;;;;6.30;1.90;;;;;;;-146.27;80.62;81880.00;5069824;28;20028;-71
2023/07/27 00:25:44;;;;;;;3.50;1.88;;;;;;;-146.27;81.99;81859.94;5071023;28;20131;-71
2023/07/27 00:28:09;;;;;;;9.38;2.25;;;;;;;-146.27;81.87;81884.03;5070994;28;20377;-71
2023/07/27 00:30:34;;;;;;;3.95;1.80;;;;;;;-146.27;82.23;81871.97;5070785;28;20024;-72
2023/07/27 00:33:00;;;;;;;5.53;1.60;;;;;;;-146.27;83.06;81932.22;5071166;28;20029;-71
2023/07/27 00:35:25;;;;;;;5.35;2.10;;;;;;;-146.27;83.59;81926.22;5070627;28;20154;-70
2023/07/27 00:37:51;;;;;;;5.65;2.42;;;;;;;-146.27;84.61;81948.31;5070761;28;20051;-71
2023/07/27 00:40:17;;;;;;;5.18;2.50;;;;;;;-146.27;84.80;81966.38;5070837;28;20043;-70
2023/07/27 00:42:42;;;;;;;7.03;2.40;;;;;;;-146.27;85.39;82014.59;5070571;28;20047;-70
2023/07/27 00:45:08;;;;;;;6.35;2.90;;;;;;;-146.27;87.07;82074.84;5070754;28;20028;-70
2023/07/27 00:47:34;;;;;;;9.68;2.90;;;;;;;-146.27;88.12;82026.63;5070125;28;20039;-70
2023/07/27 00:49:59;;;;;;;8.48;2.47;;;;;;;-146.27;88.51;82044.72;5070567;28;20032;-71
2023/07/27 00:52:25;;;;;;;7.00;3.00;;;;;;;-146.27;88.58;82109.00;5070414;28;20111;-72
2023/07/27 00:54:50;;;;;;;5.50;2.83;;;;;;;-146.27;89.00;82133.09;5070374;28;20130;-70
2023/07/27 00:57:17;;;;;;;5.57;2.80;;;;;;;-146.27;89.68;82155.19;5070198;28;20138;-70
2023/07/27 00:59:42;;;;;;;4.07;2.72;;;;;;;-146.27;90.35;82207.41;5070499;28;20020;-71
2023/07/27 01:02:08;;;;;;;8.45;2.97;;;;;;;-146.27;91.23;82249.59;5070592;28;20035;-71
2023/07/27 01:04:33;;;;;;;8.55;3.20;;;;;;;-146.27;91.90;82203.41;5070453;28;20523;-71
2023/07/27 01:06:59;;;;;;;7.13;3.30;;;;;;;-146.27;92.81;82215.44;5070167;28;20034;-71
2023/07/27 01:09:24;;;;;;;7.20;3.35;;;;;;;-146.27;93.51;82205.41;5070199;28;20361;-71
2023/07/27 01:12:07;;;;;;;7.57;3.70;;;;;;;-146.27;92.94;82247.59;5070200;28;20028;-71
2023/07/27 01:14:59;;;;;;;7.68;3.60;;;;;;;-146.27;94.09;82235.53;5069957;28;20040;-71
2023/07/27 01:17:34;;;;;;;7.00;3.38;;;;;;;-146.27;95.72;82177.28;5069880;28;20440;-71
2023/07/27 01:20:36;;;;;;;7.50;3.50;;;;;;;-146.27;95.58;82251.59;5070631;28;20027;-70
2023/07/27 01:23:20;;;;;;;5.45;3.38;;;;;;;-146.27;95.49;82259.66;5056596;28;20094;-71
2023/07/27 01:26:22;;;;;;;6.93;2.90;;;;;;;-146.27;97.02;82219.47;5070435;28;20028;-71
2023/07/27 01:29:06;;;;;;;9.60;4.30;;;;;;;-146.27;97.09;82265.66;5070209;28;20147;-72
2023/07/27 01:31:41;;;;;;;5.00;3.45;;;;;;;-146.27;98.01;82267.69;5068403;28;20027;-71
2023/07/27 01:34:29;;;;;;;5.90;3.30;;;;;;;-146.27;97.78;82283.75;5069813;28;20542;-71
2023/07/27 01:36:59;;;;;;;8.52;3.83;;;;;;;-146.27;97.78;82285.75;5069701;28;20520;-70
2023/07/27 01:39:26;;;;;;;5.10;3.10;;;;;;;-146.27;97.54;82299.81;5070168;28;20021;-71
2023/07/27 01:41:53;;;;;;;5.43;3.28;;;;;;;-146.27;97.88;82315.88;5069963;28;20499;-70
2023/07/27 01:44:22;;;;;;;6.30;3.50;;;;;;;-146.27;98.25;82335.97;5069840;28;20552;-71
2023/07/27 01:46:50;;;;;;;5.85;3.45;;;;;;;-146.27;98.96;82315.88;5069881;28;20473;-71
2023/07/27 01:49:17;;;;;;;6.70;3.65;;;;;;;-146.27;99.54;82323.91;5070119;28;20396;-71
2023/07/27 01:51:43;;;;;;;7.68;3.72;;;;;;;-146.27;99.68;82297.81;5069805;28;20518;-71
2023/07/27 01:54:10;;;;;;;7.20;3.30;;;;;;;-146.27;99.58;82311.88;5069806;28;20090;-70
2023/07/27 01:56:37;;;;;;;8.40;3.60;;;;;;;-146.27;99.24;82299.81;5069709;28;20025;-71
2023/07/27 01:59:03;;;;;;;6.35;3.55;;;;;;;-146.27;98.68;82301.81;5071260;28;20028;-71
2023/07/27 02:01:29;;;;;;;9.63;3.80;;;;;;;-146.27;98.87;82311.88;5072758;28;20040;-71
2023/07/27 02:03:55;;;;;;;7.07;2.70;;;;;;;-146.27;98.63;82299.81;5074051;28;20024;-71
2023/07/27 02:06:20;;;;;;;4.78;3.00;;;;;;;-146.27;98.68;82285.75;5074033;28;20016;-71
2023/07/27 02:08:46;;;;;;;4.55;2.63;;;;;;;-146.27;99.19;82340.00;5073666;28;20106;-72
2023/07/27 02:11:16;;;;;;;7.38;3.10;;;;;;;-146.27;99.64;82327.94;5073577;28;20024;-71
2023/07/27 02:14:03;;;;;;;6.68;3.42;;;;;;;-146.27;100.00;82340.00;5073482;28;20105;-72
2023/07/27 02:16:45;;;;;;;5.75;2.83;;;;;;;-146.27;100.00;82311.88;5073605;28;20116;-71
2023/07/27 02:19:15;;;;;;;7.88;3.30;;;;;;;-146.27;100.00;82301.81;5057534;28;20047;-71
2023/07/27 02:21:42;;;;;;;4.47;2.50;;;;;;;-146.27;100.00;82327.94;5073487;28;20039;-71
2023/07/27 02:24:08;;;;;;;6.53;2.92;;;;;;;-146.27;100.00;82368.13;5073180;28;20081;-70
2023/07/27 02:26:34;;;;;;;8.65;3.63;;;;;;;-146.27;100.00;82333.97;5073391;28;20032;-70
2023/07/27 02:29:00;;;;;;;8.15;3.40;;;;;;;-146.27;100.00;82360.09;5073164;28;20068;-72
2023/07/27 02:31:25;;;;;;;6.18;2.95;;;;;;;-146.27;100.00;82412.31;5072529;28;20395;-72
2023/07/27 02:33:51;;;;;;;6.65;3.20;;;;;;;-146.27;100.00;82323.91;5073031;28;20033;-71
2023/07/27 02:36:16;;;;;;;5.80;3.40;;;;;;;-146.27;100.00;82358.06;5073060;28;20025;-71
2023/07/27 02:38:42;;;;;;;5.32;3.58;;;;;;;-146.27;100.00;82372.13;5072969;28;20468;-71
2023/07/27 02:41:11;;;;;;;10.05;4.45;;;;;;;-146.27;100.00;82342.00;5071920;28;20126;-71
2023/07/27 02:43:37;;;;;;;7.63;4.43;;;;;;;-146.27;100.00;82335.97;5073101;28;20035;-71
2023/07/27 02:46:04;;;;;;;8.35;4.80;;;;;;;-146.27;100.00;82323.91;5073165;28;20089;-70
2023/07/27 02:48:30;;;;;;;7.22;4.47;;;;;;;-146.27;100.00;82376.16;5072826;28;20535;-71
2023/07/27 02:50:55;;;;;;;6.78;4.55;;;;;;;-146.27;100.00;82362.09;5073119;28;20354;-70
2023/07/27 02:53:21;;;;;;;8.88;5.47;;;;;;;-146.27;100.00;82344.00;5072683;28;20024;-71
2023/07/27 02:56:00;;;;;;;13.05;7.60;;;;;;;-146.27;100.00;82348.03;5072685;28;20445;-71
2023/07/27 02:58:27;;;;;;;9.30;6.47;;;;;;;-146.27;100.00;82376.16;5072737;28;20416;-70
2023/07/27 03:00:54;;;;;;;13.82;5.80;;;;;;;-146.27;100.00;82352.03;5072700;28;20028;-71
2023/07/27 03:03:20;;;;;;;10.90;6.95;;;;;;;-146.27;100.00;82356.06;5072047;28;20031;-71
2023/07/27 03:05:45;;;;;;;11.27;6.97;;;;;;;-146.27;100.00;82388.22;5072710;28;20021;-72
2023/07/27 03:08:11;;;;;;;9.65;6.25;;;;;;;-146.27;100.00;82352.03;5072342;28;20454;-71
2023/07/27 03:10:36;;;;;;;10.70;7.25;;;;;;;-146.27;100.00;82412.31;5072687;28;20025;-71
2023/07/27 03:13:02;;;;;;;12.02;6.95;;;;;;;-146.27;100.00;82368.13;5072723;28;20044;-71
2023/07/27 03:15:27;;;;;;;11.27;7.50;;;;;;;-146.27;100.00;82416.31;5072993;28;20024;-71
2023/07/27 03:17:52;;;;;;;11.68;6.97;;;;;;;-146.27;100.00;82420.34;5072295;28;20028;-71
2023/07/27 03:20:18;;;;;;;12.30;8.35;;;;;;;-146.27;100.00;82380.16;5072091;28;20404;-71
2023/07/27 03:22:43;;;;;;;15.85;8.02;;;;;;;-146.27;100.00;82420.34;5072240;28;20028;-71
2023/07/27 03:25:09;;;;;;;11.00;8.60;;;;;;;-146.27;100.00;82440.44;5072332;28;20024;-71
2023/07/27 03:27:35;;;;;;;14.15;8.32;;;;;;;-146.27;100.00;82462.53;5072051;28;20273;-71
2023/07/27 03:30:00;;;;;;;14.68;8.25;;;;;;;-146.27;100.00;82416.31;5072220;28;20460;-71
2023/07/27 03:32:25;;;;;;;12.85;8.60;;;;;;;-146.27;100.00;82426.38;5072035;28;20035;-71
2023/07/27 03:34:51;;;;;;;14.18;9.05;;;;;;;-146.27;100.00;82432.41;5072375;28;20725;-71
2023/07/27 03:37:16;;;;;;;14.00;8.63;;;;;;;-146.27;100.00;82440.44;5072498;28;20064;-71
2023/07/27 03:39:41;;;;;;;16.73;8.88;;;;;;;-146.27;100.00;82426.38;5072398;28;20023;-71
2023/07/27 03:42:07;;;;;;;15.68;8.57;;;;;;;-146.27;100.00;82440.44;5072278;28;20032;-71
2023/07/27 03:44:32;;;;;;;16.80;8.30;;;;;;;-146.27;100.00;82468.56;5070844;28;20020;-71
2023/07/27 03:46:57;;;;;;;14.88;8.30;;;;;;;-146.27;100.00;82458.50;5071823;28;20384;-71
2023/07/27 03:49:23;;;;;;;12.68;8.10;;;;;;;-146.27;100.00;82432.41;5071915;28;20033;-72
2023/07/27 03:51:48;;;;;;;18.98;8.05;;;;;;;-146.27;100.00;82460.53;5071689;28;20040;-71
2023/07/27 03:54:13;;;;;;;12.45;7.20;;;;;;;-146.27;100.00;82420.34;5070122;28;20110;-71
2023/07/27 03:56:39;;;;;;;12.65;7.88;;;;;;;-146.27;100.00;82426.38;5071749;28;20112;-71
2023/07/27 03:59:04;;;;;;;11.80;8.05;;;;;;;-146.27;100.00;82460.53;5072224;28;20028;-71
2023/07/27 04:01:30;;;;;;;15.18;8.38;;;;;;;-146.27;100.00;82456.50;5071897;28;20035;-72
2023/07/27 04:03:55;;;;;;;13.18;7.78;;;;;;;-146.27;100.00;82472.56;5071860;28;20121;-71
2023/07/27 04:06:20;;;;;;;12.02;7.85;;;;;;;-146.27;100.00;82488.66;5071568;28;20106;-72
2023/07/27 04:08:46;;;;;;;10.70;7.53;;;;;;;-146.27;100.00;82500.69;5071434;28;20052;-71
2023/07/27 04:11:11;;;;;;;10.13;7.43;;;;;;;-146.27;100.00;82494.66;5071290;28;20047;-71
2023/07/27 04:13:37;;;;;;;11.38;6.88;;;;;;;-146.27;100.00;82492.66;5071227;28;20046;-71
2023/07/27 04:16:04;;;;;;;11.20;6.40;;;;;;;-146.27;100.00;82432.41;5071073;28;20362;-71
2023/07/27 04:18:29;;;;;;;8.93;7.05;;;;;;;-146.27;100.00;82474.59;5069724;28;20117;-71
2023/07/27 04:20:55;;;;;;;14.20;6.95;;;;;;;-146.27;100.00;82460.53;5070798;28;20024;-71
2023/07/27 04:23:20;;;;;;;10.18;6.90;;;;;;;-146.27;100.00;82496.69;5071384;28;20499;-71
2023/07/27 04:25:45;;;;;;;10.88;6.40;;;;;;;-146.27;100.00;82476.59;5071197;28;20078;-71
2023/07/27 04:28:11;;;;;;;11.05;6.68;;;;;;;-146.27;100.00;82508.72;5070566;28;20025;-71
2023/07/27 04:30:36;;;;;;;10.70;7.13;;;;;;;-146.27;100.00;82460.53;5070482;28;20024;-71
2023/07/27 04:33:02;;;;;;;9.02;6.32;;;;;;;-146.27;100.00;82432.41;5070457;28;20028;-71
2023/07/27 04:35:27;;;;;;;11.80;6.97;;;;;;;-146.27;100.00;82492.66;5069154;28;20072;-71
2023/07/27 04:37:52;;;;;;;8.77;5.90;;;;;;;-146.27;100.00;82464.53;5070548;28;20028;-71
2023/07/27 04:40:19;;;;;;;9.98;6.65;;;;;;;-146.27;100.00;82434.41;5070494;28;20031;-72
2023/07/27 04:42:44;;;;;;;11.07;6.57;;;;;;;-146.27;100.00;82384.19;5070903;28;20025;-72
2023/07/27 04:45:10;;;;;;;10.57;5.93;;;;;;;-146.27;100.00;82468.56;5070288;28;20028;-71
2023/07/27 04:47:36;;;;;;;9.02;5.43;;;;;;;-146.27;100.00;82464.53;5070402;28;20035;-72
2023/07/27 04:50:04;;;;;;;9.25;5.53;;;;;;;-146.27;100.00;82440.44;5069205;28;20020;-72
2023/07/27 04:52:29;;;;;;;12.90;6.47;;;;;;;-146.27;100.00;82440.44;5061878;28;20491;-72
2023/07/27 04:54:54;;;;;;;9.45;6.22;;;;;;;-146.27;100.00;82458.50;5070439;28;20074;-72
2023/07/27 04:57:20;;;;;;;15.80;5.93;;;;;;;-146.27;100.00;82452.47;5070258;28;20123;-72
2023/07/27 04:59:45;;;;;;;9.65;5.93;;;;;;;-146.27;100.00;82454.50;5070825;28;20143;-72
2023/07/27 05:02:10;;;;;;;8.65;6.07;;;;;;;-146.27;100.00;82426.38;5070508;28;20089;-71
2023/07/27 05:04:36;;;;;;;7.95;5.63;;;;;;;-146.27;100.00;82418.34;5070020;28;20255;-71
2023/07/27 05:07:01;;;;;;;7.20;5.10;;;;;;;-146.27;100.00;82442.44;5069789;28;20519;-71
2023/07/27 05:09:27;;;;;;;9.32;5.38;;;;;;;-146.27;100.00;82348.03;5069959;28;20500;-71
2023/07/27 05:11:52;;;;;;;10.73;5.00;;;;;;;-146.27;100.00;82396.25;5070066;28;20028;-72
2023/07/27 05:14:17;;;;;;;5.95;4.78;;;;;;;-146.27;100.00;82414.31;5069626;28;20408;-71
2023/07/27 05:16:43;;;;;;;8.00;4.43;;;;;;;-146.27;100.00;82342.00;5069442;28;20396;-71
2023/07/27 05:19:08;;;;;;;8.00;4.90;;;;;;;-146.27;100.00;82390.22;5070321;28;20024;-71
2023/07/27 05:21:34;;;;;;;5.72;4.93;;;;;;;-146.27;100.00;82388.22;5069905;28;20047;-72
2023/07/27 05:23:59;;;;;;;7.07;4.97;;;;;;;-146.27;100.00;82380.16;5069808;28;20063;-71
2023/07/27 05:26:25;;;;;;;5.70;4.60;;;;;;;-146.27;100.00;82352.03;5069745;28;20052;-71
2023/07/27 05:28:50;;;;;;;6.88;4.20;;;;;;;-146.27;100.00;82346.03;5069783;28;20024;-72
2023/07/27 05:31:15;;;;;;;6.72;3.83;;;;;;;-146.27;100.00;82356.06;5069575;28;20104;-72
2023/07/27 05:33:41;;;;;;;5.15;3.63;;;;;;;-146.27;100.00;82311.88;5068714;28;20465;-71
2023/07/27 05:36:06;;;;;;;4.93;3.88;;;;;;;-146.27;100.00;82340.00;5069419;28;20358;-71
2023/07/27 05:38:31;;;;;;;5.70;4.20;;;;;;;-146.27;100.00;82368.13;5069674;28;20028;-72
2023/07/27 05:41:01;;;;;;;6.78;3.78;;;;;;;-146.27;100.00;82321.91;5070050;28;20039;-71
2023/07/27 05:43:26;;;;;;;4.35;3.90;;;;;;;-146.27;100.00;82313.88;5068003;28;20051;-71
2023/07/27 05:45:52;;;;;;;6.53;4.35;;;;;;;-146.27;100.00;82323.91;5069243;28;20021;-71
2023/07/27 05:48:17;;;;;;;6.00;4.57;;;;;;;-146.27;100.00;82319.91;5069496;28;20476;-71
2023/07/27 05:50:43;;;;;;;4.75;4.28;;;;;;;-146.27;100.00;82331.97;5069177;28;20027;-70
2023/07/27 05:53:08;;;;;;;5.43;4.10;;;;;;;-146.27;100.00;82335.97;5069336;28;20047;-70
2023/07/27 05:55:33;;;;;;;5.40;4.40;;;;;;;-146.27;100.00;82319.91;5069505;28;20032;-71
2023/07/27 05:57:59;;;;;;;6.55;4.68;;;;;;;-146.27;100.00;82329.94;5069458;28;20548;-70
2023/07/27 06:00:26;;;;;;;4.57;4.18;;;;;;;-146.27;100.00;82303.84;5069176;28;20239;-71
2023/07/27 06:02:51;;;;;;;7.22;4.88;;;;;;;-146.27;100.00;82323.91;5049985;28;20477;-70
2023/07/27 06:05:16;;;;;;;7.20;5.00;;;;;;;-146.27;100.00;82279.72;5060167;28;20027;-69
2023/07/27 06:07:42;;;;;;;5.20;4.70;;;;;;;-146.27;100.00;82285.75;5069124;28;20024;-68
2023/07/27 06:10:08;;;;;;;6.65;5.28;;;;;;;-146.27;100.00;82251.59;5068943;28;20043;-69
2023/07/27 06:12:33;;;;;;;5.93;4.95;;;;;;;-146.27;100.00;82283.75;5069552;28;20025;-69
2023/07/27 06:14:59;;;;;;;4.60;4.20;;;;;;;-146.27;100.00;82305.84;5068917;28;20101;-69
2023/07/27 06:17:25;;;;;;;6.47;4.32;;;;;;;-146.27;100.00;82285.75;5068027;28;20503;-70
2023/07/27 06:19:51;;;;;;;3.65;3.13;;;;;;;-146.27;100.00;82261.66;5069549;28;20032;-69
2023/07/27 06:22:16;;;;;;;3.85;3.30;;;;;;;-146.27;100.00;82243.56;5068911;28;20499;-69
2023/07/27 06:24:41;;;;;;;8.02;3.42;;;;;;;-146.27;100.00;82273.72;5069285;28;20107;-69
2023/07/27 06:27:07;;;;;;;4.15;2.70;;;;;;;-146.27;100.00;82277.72;5069100;28;20056;-69
2023/07/27 06:29:32;;;;;;;3.92;2.65;;;;;;;-146.27;100.00;82267.69;5069725;28;20033;-68
2023/07/27 06:31:58;;;;;;;6.40;2.78;;;;;;;-146.27;100.00;82231.53;5067745;28;20032;-69
2023/07/27 06:34:23;;;;;;;6.30;2.90;;;;;;;-146.27;100.00;82217.47;5069334;28;20024;-69
2023/07/27 06:36:48;;;;;;;9.05;2.38;;;;;;;-146.27;100.00;82201.38;5068937;28;20411;-69
2023/07/27 06:39:14;;;;;;;3.00;1.80;;;;;;;-146.27;100.00;82159.22;5049192;28;20059;-69
2023/07/27 06:41:39;;;;;;;4.53;2.30;;;;;;;-146.27;100.00;82219.47;5064386;28;20032;-70
2023/07/27 06:44:05;;;;;;;6.68;2.88;;;;;;;-146.27;100.00;82187.31;5068813;28;20028;-70
2023/07/27 06:46:31;;;;;;;6.30;2.33;;;;;;;-146.27;100.00;82199.38;5072496;28;20501;-69
2023/07/27 06:48:56;;;;;;;5.85;2.38;;;;;;;-146.27;100.00;82187.31;5073089;28;20029;-69
2023/07/27 06:51:23;;;;;;;8.07;2.30;;;;;;;-146.27;100.00;82211.44;5072772;28;20383;-70
2023/07/27 06:53:49;;;;;;;4.75;2.45;;;;;;;-146.27;100.00;82207.41;5072663;28;20111;-68
2023/07/27 06:56:14;;;;;;;7.38;2.47;;;;;;;-146.27;100.00;82163.22;5072652;28;20116;-69
2023/07/27 06:58:39;;;;;;;6.15;2.28;;;;;;;-146.27;100.00;82161.22;5072457;28;20112;-69
2023/07/27 07:01:05;;;;;;;7.35;2.53;;;;;;;-146.27;100.00;82135.09;5072776;28;20304;-69
2023/07/27 07:03:30;;;;;;;8.80;2.58;;;;;;;-146.27;100.00;82187.31;5072954;28;20025;-69
2023/07/27 07:05:56;;;;;;;3.83;1.70;;;;;;;-146.27;100.00;82195.38;5072627;28;20461;-69
2023/07/27 07:08:21;;;;;;;6.45;2.85;;;;;;;-146.27;100.00;82159.22;5072352;28;20460;-68
2023/07/27 07:10:46;;;;;;;9.27;2.00;;;;;;;-146.27;100.00;82179.28;5072498;28;20020;-69
2023/07/27 07:13:12;;;;;;;8.65;2.05;;;;;;;-146.27;100.00;82167.25;5071725;28;20060;-70
2023/07/27 07:15:38;;;;;;;6.38;1.88;;;;;;;-146.27;100.00;82159.22;5072315;28;20554;-70
2023/07/27 07:18:03;;;;;;;12.70;2.30;;;;;;;-146.27;100.00;82147.16;5071008;28;20143;-69
2023/07/27 07:20:28;;;;;;;5.82;1.88;;;;;;;-146.27;100.00;82165.22;5072070;28;20049;-70
2023/07/27 07:22:54;;;;;;;9.43;2.00;;;;;;;-146.27;100.00;82149.16;5071043;28;20064;-69
2023/07/27 07:25:19;;;;;;;6.38;2.00;;;;;;;-146.27;100.00;82141.13;5070775;28;20031;-70
2023/07/27 07:27:44;;;;;;;15.05;3.75;;;;;;;-146.27;100.00;82159.22;5070839;28;20028;-70
2023/07/27 07:30:11;;;;;;;9.93;2.38;;;;;;;-146.27;100.00;82086.91;5071254;28;20080;-69
2023/07/27 07:32:36;;;;;;;8.02;2.60;;;;;;;-146.27;100.00;82082.88;5072175;28;20463;-69
2023/07/27 07:35:02;;;;;;;8.77;2.45;;;;;;;-146.27;100.00;82157.19;5072129;28;20108;-69
2023/07/27 07:37:27;;;;;;;8.82;2.53;;;;;;;-146.27;100.00;82052.75;5070615;28;20032;-70
2023/07/27 07:39:53;;;;;;;7.93;2.22;;;;;;;-146.27;100.00;82070.81;5068017;28;21093;-70
2023/07/27 07:42:18;;;;;;;7.80;2.13;;;;;;;-146.27;100.00;82100.97;5072314;28;21277;-69
2023/07/27 07:44:43;;;;;;;5.50;2.08;;;;;;;-146.27;100.00;82074.84;5071652;28;20075;-69
2023/07/27 07:47:09;;;;;;;5.78;2.33;;;;;;;-146.27;100.00;82080.88;5072050;28;20020;-68
2023/07/27 07:49:34;;;;;;;8.20;1.88;;;;;;;-146.27;100.00;82094.94;5071789;28;20021;-69
2023/07/27 07:51:59;;;;;;;10.48;1.95;;;;;;;-146.27;100.00;82010.56;5071998;28;20052;-70
2023/07/27 07:54:28;;;;;;;9.75;1.90;;;;;;;-146.27;100.00;82076.84;5070404;28;20375;-70
2023/07/27 07:56:54;;;;;;;8.68;1.77;;;;;;;-146.27;100.00;82109.00;5070710;28;20021;-69
2023/07/27 07:59:20;;;;;;;8.90;1.98;;;;;;;-146.27;100.00;82090.91;5071750;28;20020;-70
2023/07/27 08:01:45;;;;;;;3.60;1.75;;;;;;;-146.27;100.00;82050.75;5071469;28;20024;-70
2023/07/27 08:04:13;;;;;;;6.07;2.10;;;;;;;-146.27;100.00;82102.97;5071578;28;20393;-69
2023/07/27 08:06:38;;;;;;;6.47;2.30;;;;;;;-146.27;100.00;82064.81;5070976;28;20472;-69
2023/07/27 08:09:06;;;;;;;7.50;1.92;;;;;;;-146.27;100.00;82026.63;5071498;28;20162;-70
2023/07/27 08:11:32;;;;;;;8.35;2.15;;;;;;;-146.27;100.00;81958.34;5071292;28;20040;-70
2023/07/27 08:14:01;;;;;;;5.75;1.75;;;;;;;-146.27;100.00;82070.81;5071333;28;20412;-70
2023/07/27 08:16:27;;;;;;;4.25;1.80;;;;;;;-146.27;100.00;81988.47;5071303;28;20036;-69
2023/07/27 08:18:52;;;;;;;8.25;2.10;;;;;;;-146.27;100.00;82010.56;5071257;28;20368;-69
2023/07/27 08:21:17;;;;;;;10.65;2.13;;;;;;;-146.27;100.00;82008.56;5071193;28;20039;-69
2023/07/27 08:23:43;;;;;;;5.88;2.05;;;;;;;-146.27;100.00;81994.50;5071298;28;20460;-69
2023/07/27 08:26:09;;;;;;;4.57;2.03;;;;;;;-146.27;100.00;82102.97;5070789;28;20028;-69
2023/07/27 08:28:35;;;;;;;5.80;2.00;;;;;;;-146.27;100.00;82000.53;5069167;28;20518;-68
2023/07/27 08:31:03;;;;;;;9.73;2.78;;;;;;;-146.27;100.00;81980.44;5070856;28;20032;-69
2023/07/27 08:33:28;;;;;;;10.13;2.63;;;;;;;-146.27;100.00;81978.44;5070907;28;20025;-69
2023/07/27 08:35:54;;;;;;;5.72;2.42;;;;;;;-146.27;100.00;81964.38;5070318;28;20029;-69
2023/07/27 08:38:19;;;;;;;11.73;3.33;;;;;;;-146.27;100.00;81978.44;5071037;28;20055;-71
2023/07/27 08:40:59;;;;;;;11.30;2.33;;;;;;;-146.27;100.00;81948.31;5070963;28;20425;-69
2023/07/27 08:43:26;;;;;;;11.73;2.53;;;;;;;-146.27;100.00;81980.44;5070737;28;20036;-70
2023/07/27 08:45:51;;;;;;;14.85;2.72;;;;;;;-146.27;100.00;81962.34;5070476;28;20024;-67
2023/07/27 08:48:24;;;;;;;10.27;2.33;;;;;;;-146.27;100.00;81966.38;5069881;28;20377;-70
2023/07/27 08:50:51;;;;;;;10.02;2.58;;;;;;;-146.27;100.00;81940.25;5070162;28;20040;-68
2023/07/27 08:53:17;;;;;;;12.55;2.25;;;;;;;-146.27;100.00;81992.50;5070095;28;20025;-67
2023/07/27 08:55:43;;;;;;;13.40;2.45;;;;;;;-146.27;100.00;81940.25;5069850;28;20060;-69
2023/07/27 08:58:09;;;;;;;11.68;2.13;;;;;;;-146.27;100.00;81956.34;5070259;28;20515;-68
2023/07/27 09:00:35;;;;;;;11.02;2.67;;;;;;;-146.27;100.00;81926.22;5070143;28;20036;-69
2023/07/27 09:03:00;;;;;;;8.50;2.03;;;;;;;-146.27;100.00;81898.09;5070334;28;20380;-69
2023/07/27 09:05:56;;;;;;;10.93;1.90;;;;;;;-146.27;100.00;81962.34;5070335;28;20396;-69
2023/07/27 09:08:21;;;;;;;12.23;2.90;;;;;;;-146.27;100.00;81964.38;5070183;28;20032;-69
2023/07/27 09:10:47;;;;;;;10.35;2.60;;;;;;;-146.27;100.00;81974.41;5069962;28;20021;-68
2023/07/27 09:13:13;;;;;;;3.63;1.90;;;;;;;-146.27;100.00;81928.22;5070165;28;20048;-69
2023/07/27 09:15:44;;;;;;;3.53;1.48;;;;;;;-146.27;100.00;81940.25;5069661;28;20054;-69
2023/07/27 09:18:13;;;;;;;9.20;1.90;;;;;;;-146.27;100.00;81918.16;5070082;28;20094;-67
2023/07/27 09:20:40;;;;;;;4.72;1.40;;;;;;;-146.27;100.00;81873.97;5069565;28;20166;-68
2023/07/27 09:23:06;;;;;;;6.03;1.85;;;;;;;-146.27;100.00;81888.03;5069529;28;20388;-67
2023/07/27 09:25:31;;;;;;;5.47;1.27;;;;;;;-146.27;100.00;81890.06;5069783;28;20499;-70
2023/07/27 09:27:57;;;;;;;7.50;1.60;;;;;;;-146.27;100.00;81950.31;5069732;28;20118;-67
2023/07/27 09:30:24;;;;;;;6.22;1.45;;;;;;;-146.27;100.00;81896.06;5069898;28;20491;-69
2023/07/27 09:32:51;;;;;;;3.00;1.45;;;;;;;-146.27;100.00;81886.03;5069943;28;20374;-69
2023/07/27 09:35:18;;;;;;;5.82;1.80;;;;;;;-146.27;100.00;81946.28;5070041;28;20128;-69
2023/07/27 09:37:45;;;;;;;4.40;1.80;;;;;;;-146.27;100.00;81876.00;5069895;28;20028;-69
2023/07/27 09:40:13;;;;;;;7.53;2.15;;;;;;;-146.27;100.00;81847.88;5069404;28;20059;-69
2023/07/27 09:42:40;;;;;;;4.85;1.58;;;;;;;-146.27;100.00;81880.00;5068063;28;20036;-68
2023/07/27 09:45:06;;;;;;;7.20;1.75;;;;;;;-146.27;100.00;81857.91;5069870;28;20149;-69
2023/07/27 09:47:31;;;;;;;5.15;2.08;;;;;;;-146.27;100.00;81880.00;5068985;28;20523;-69
2023/07/27 09:49:59;;;;;;;13.45;1.95;;;;;;;-146.27;100.00;81894.06;5069699;28;20078;-70
2023/07/27 09:52:25;;;;;;;9.13;1.92;;;;;;;-146.27;100.00;81904.13;5069798;28;20029;-69
2023/07/27 09:54:51;;;;;;;13.48;1.85;;;;;;;-146.27;100.00;81920.19;5069646;28;20031;-71
2023/07/27 09:57:17;;;;;;;8.77;1.83;;;;;;;-146.27;100.00;81876.00;5069497;28;20099;-69
2023/07/27 09:59:44;;;;;;;7.63;1.88;;;;;;;-146.27;100.00;81902.09;5069822;28;20474;-69
2023/07/27 10:02:09;;;;;;;4.35;1.10;;;;;;;-146.27;100.00;81888.03;5069888;28;20028;-70
2023/07/27 10:04:35;;;;;;;6.28;1.35;;;;;;;-146.27;100.00;81930.22;5069735;28;20503;-70
2023/07/27 10:07:01;;;;;;;5.00;1.48;;;;;;;-146.27;100.00;81914.16;5069661;28;20387;-70
2023/07/27 10:09:27;;;;;;;6.13;1.50;;;;;;;-146.27;100.00;81934.25;5069687;28;20028;-70
2023/07/27 10:11:57;;;;;;;10.05;1.83;;;;;;;-146.27;100.00;81880.00;5069478;28;20078;-70
2023/07/27 10:14:27;;;;;;;7.60;1.48;;;;;;;-146.27;100.00;81829.78;5069357;28;20044;-70
2023/07/27 10:17:04;;;;;;;4.13;1.77;;;;;;;-146.27;100.00;81827.78;5068387;28;20032;-69
2023/07/27 10:19:43;;;;;;;7.90;1.75;;;;;;;-146.27;100.00;81821.75;5070206;28;20055;-72
2023/07/27 10:22:17;;;;;;;6.90;1.83;;;;;;;-146.27;100.00;81861.94;5073492;28;20495;-70
2023/07/27 10:24:58;;;;;;;;;;;;;;;-146.27;100.00;81779.59;5073410;28;20499;-69
2023/07/27 10:27:23;;;;;;;5.68;1.63;;;;;;;-146.27;100.00;81823.78;5072550;28;20011;-69
2023/07/27 10:30:11;;;;;;;4.80;1.90;;;;;;;-146.27;100.00;81817.75;5073349;28;20081;-70
2023/07/27 10:32:37;;;;;;;3.80;1.48;;;;;;;-146.27;100.00;81857.91;5073175;28;20031;-69
2023/07/27 10:35:07;;;;;;;4.40;2.10;;;;;;;-146.27;100.00;81839.84;5073087;28;20025;-69
2023/07/27 10:37:53;;;;;;;10.75;2.40;;;;;;;-146.27;100.00;81803.69;5067295;28;20449;-70
2023/07/27 10:40:30;;;;;;;5.28;1.85;;;;;;;-146.27;100.00;81813.72;5070967;28;20050;-68
2023/07/27 10:42:56;;;;;;;5.35;2.00;;;;;;;-146.27;100.00;81783.59;5072255;28;20048;-68
2023/07/27 10:45:26;;;;;;;6.40;1.60;;;;;;;-146.27;100.00;81717.31;5071948;28;20516;-69
2023/07/27 10:47:56;;;;;;;8.07;1.63;;;;;;;-146.27;100.00;81797.66;5072866;28;20035;-68
2023/07/27 10:50:22;;;;;;;6.60;2.03;;;;;;;-146.27;100.00;81845.88;5078373;28;20120;-69
2023/07/27 10:52:52;;;;;;;3.40;1.70;;;;;;;-146.27;100.00;81932.22;5068775;28;20111;-68
2023/07/27 10:55:19;;;;;;;5.00;1.65;;;;;;;-146.27;100.00;81803.69;5072555;28;20052;-68
2023/07/27 10:57:46;;;;;;;7.43;1.88;;;;;;;-146.27;100.00;81745.44;5072498;28;20035;-68
2023/07/27 11:00:13;;;;;;;6.57;1.70;;;;;;;-146.27;100.00;81821.75;5072301;28;20115;-69
2023/07/27 11:02:39;;;;;;;4.95;2.00;;;;;;;-146.27;100.00;81767.53;5072730;28;20481;-69
2023/07/27 11:05:07;;;;;;;6.88;1.75;;;;;;;-146.27;100.00;81749.47;5072495;28;20012;-69
2023/07/27 11:07:41;;;;;;;3.20;1.40;;;;;;;-146.27;100.00;81761.50;5072459;28;20024;-68
2023/07/27 11:10:11;;;;;;;5.75;1.42;;;;;;;-146.27;100.00;81777.56;5072211;28;20070;-69